sensor_id;sensor_type;location;lat;lon;timestamp;pressure;altitude;pressure_sealevel;temperature;humidity
22605;BME280;11469;49.024;8.246;2024-03-23T00:54:18;99630.91;;;11.54;100.00
22605;BME280;11469;49.024;8.246;2024-03-23T00:56:44;99609.69;;;11.56;100.00
22605;BME280;11469;49.024;8.246;2024-03-23T00:59:09;99595.25;;;11.54;100.00
22605;BME280;11469;49.024;8.246;2024-03-23T01:01:34;99594.03;;;11.52;100.00
22605;BME280;11469;49.024;8.246;2024-03-23T01:04:00;99601.19;;;11.46;100.00
22605;BME280;11469;49.024;8.246;2024-03-23T01:06:25;99587.97;;;11.46;100.00
22605;BME280;11469;49.024;8.246;2024-03-23T01:08:50;99579.97;;;11.48;100.00
22605;BME280;11469;49.024;8.246;2024-03-23T01:11:16;99585.16;;;11.46;100.00
22605;BME280;11469;49.024;8.246;2024-03-23T01:13:41;99588.78;;;11.50;100.00
22605;BME280;11469;49.024;8.246;2024-03-23T01:16:06;99589.28;;;11.59;100.00
22605;BME280;11469;49.024;8.246;2024-03-23T01:18:32;99566.47;;;11.64;100.00
22605;BME280;11469;49.024;8.246;2024-03-23T01:20:58;99586.59;;;11.74;100.00
22605;BME280;11469;49.024;8.246;2024-03-23T01:23:23;99584.25;;;11.83;100.00
22605;BME280;11469;49.024;8.246;2024-03-23T01:25:52;99580.31;;;11.91;100.00
22605;BME280;11469;49.024;8.246;2024-03-23T01:28:19;99573.53;;;11.95;100.00
22605;BME280;11469;49.024;8.246;2024-03-23T01:30:45;99573.97;;;12.01;100.00
22605;BME280;11469;49.024;8.246;2024-03-23T01:33:10;99563.19;;;12.10;99.59
22605;BME280;11469;49.024;8.246;2024-03-23T01:35:35;99562.03;;;12.15;99.25
22605;BME280;11469;49.024;8.246;2024-03-23T01:38:01;99562.84;;;12.19;98.86
22605;BME280;11469;49.024;8.246;2024-03-23T01:40:26;99574.91;;;12.19;99.24
22605;BME280;11469;49.024;8.246;2024-03-23T01:42:56;99566.50;;;12.26;98.64
22605;BME280;11469;49.024;8.246;2024-03-23T01:45:21;99570.09;;;12.23;98.71
22605;BME280;11469;49.024;8.246;2024-03-23T01:47:49;99565.28;;;12.24;98.40
22605;BME280;11469;49.024;8.246;2024-03-23T01:50:14;99568.13;;;12.27;98.67
22605;BME280;11469;49.024;8.246;2024-03-23T01:52:40;99557.69;;;12.24;98.53
22605;BME280;11469;49.024;8.246;2024-03-23T01:55:06;99552.03;;;12.21;98.70
22605;BME280;11469;49.024;8.246;2024-03-23T01:57:32;99553.25;;;12.23;98.48
22605;BME280;11469;49.024;8.246;2024-03-23T01:59:57;99551.66;;;12.22;99.07
22605;BME280;11469;49.024;8.246;2024-03-23T02:02:23;99554.47;;;12.29;98.60
22605;BME280;11469;49.024;8.246;2024-03-23T02:04:48;99545.28;;;12.40;98.11
22605;BME280;11469;49.024;8.246;2024-03-23T02:07:13;99549.28;;;12.35;98.26
22605;BME280;11469;49.024;8.246;2024-03-23T02:09:39;99534.41;;;12.31;99.06
22605;BME280;11469;49.024;8.246;2024-03-23T02:12:04;99540.50;;;12.47;97.34
22605;BME280;11469;49.024;8.246;2024-03-23T02:14:30;99534.50;;;12.49;97.24
22605;BME280;11469;49.024;8.246;2024-03-23T02:16:55;99531.72;;;12.56;96.48
22605;BME280;11469;49.024;8.246;2024-03-23T02:19:21;99536.13;;;12.53;97.01
22605;BME280;11469;49.024;8.246;2024-03-23T02:21:46;99534.91;;;12.51;96.88
22605;BME280;11469;49.024;8.246;2024-03-23T02:24:12;99536.91;;;12.50;96.74
22605;BME280;11469;49.024;8.246;2024-03-23T02:26:38;99537.31;;;12.56;96.50
22605;BME280;11469;49.024;8.246;2024-03-23T02:29:03;99525.69;;;12.57;96.39
22605;BME280;11469;49.024;8.246;2024-03-23T02:31:28;99524.53;;;12.66;95.73
22605;BME280;11469;49.024;8.246;2024-03-23T02:33:54;99519.69;;;12.66;95.65
22605;BME280;11469;49.024;8.246;2024-03-23T02:36:19;99518.50;;;12.71;95.91
22605;BME280;11469;49.024;8.246;2024-03-23T02:38:46;99530.16;;;12.80;95.13
22605;BME280;11469;49.024;8.246;2024-03-23T02:41:11;99526.16;;;12.81;94.17
22605;BME280;11469;49.024;8.246;2024-03-23T02:43:37;99530.16;;;12.80;94.35
22605;BME280;11469;49.024;8.246;2024-03-23T02:46:03;99529.34;;;12.79;94.06
22605;BME280;11469;49.024;8.246;2024-03-23T02:48:29;99530.56;;;12.78;93.94
22605;BME280;11469;49.024;8.246;2024-03-23T02:50:54;99531.38;;;12.82;93.64
22605;BME280;11469;49.024;8.246;2024-03-23T02:53:20;99527.75;;;12.78;93.83
22605;BME280;11469;49.024;8.246;2024-03-23T02:55:45;99517.72;;;12.74;94.26
22605;BME280;11469;49.024;8.246;2024-03-23T02:58:11;99513.72;;;12.75;94.25
22605;BME280;11469;49.024;8.246;2024-03-23T03:00:36;99524.94;;;12.68;95.05
22605;BME280;11469;49.024;8.246;2024-03-23T03:03:02;99522.13;;;12.71;95.09
22605;BME280;11469;49.024;8.246;2024-03-23T03:05:28;99521.72;;;12.69;94.98
22605;BME280;11469;49.024;8.246;2024-03-23T03:07:53;99525.31;;;12.62;95.48
22605;BME280;11469;49.024;8.246;2024-03-23T03:10:19;99522.47;;;12.59;95.49
22605;BME280;11469;49.024;8.246;2024-03-23T03:12:44;99525.28;;;12.59;95.72
22605;BME280;11469;49.024;8.246;2024-03-23T03:15:10;99528.91;;;12.56;96.15
22605;BME280;11469;49.024;8.246;2024-03-23T03:17:35;99532.91;;;12.55;96.58
22605;BME280;11469;49.024;8.246;2024-03-23T03:20:00;99522.06;;;12.57;96.30
22605;BME280;11469;49.024;8.246;2024-03-23T03:22:26;99524.50;;;12.58;95.67
22605;BME280;11469;49.024;8.246;2024-03-23T03:24:51;99516.47;;;12.64;94.74
22605;BME280;11469;49.024;8.246;2024-03-23T03:27:16;99512.47;;;12.69;92.83
22605;BME280;11469;49.024;8.246;2024-03-23T03:29:42;99513.69;;;12.71;92.46
22605;BME280;11469;49.024;8.246;2024-03-23T03:32:07;99520.09;;;12.65;91.89
22605;BME280;11469;49.024;8.246;2024-03-23T03:34:33;99526.94;;;12.67;91.15
22605;BME280;11469;49.024;8.246;2024-03-23T03:36:58;99523.72;;;12.65;91.11
22605;BME280;11469;49.024;8.246;2024-03-23T03:39:25;99521.28;;;12.63;91.11
22605;BME280;11469;49.024;8.246;2024-03-23T03:41:50;99520.91;;;12.65;90.15
22605;BME280;11469;49.024;8.246;2024-03-23T03:44:16;99531.75;;;12.70;89.62
22605;BME280;11469;49.024;8.246;2024-03-23T03:46:42;99534.97;;;12.72;89.86
22605;BME280;11469;49.024;8.246;2024-03-23T03:49:08;99536.59;;;12.70;88.84
22605;BME280;11469;49.024;8.246;2024-03-23T03:51:33;99528.94;;;12.70;89.32
22605;BME280;11469;49.024;8.246;2024-03-23T03:53:59;99519.28;;;12.64;89.15
22605;BME280;11469;49.024;8.246;2024-03-23T03:56:24;99519.28;;;12.64;89.13
22605;BME280;11469;49.024;8.246;2024-03-23T03:58:50;99498.41;;;12.61;89.89
22605;BME280;11469;49.024;8.246;2024-03-23T04:01:15;99507.22;;;12.56;89.96
22605;BME280;11469;49.024;8.246;2024-03-23T04:03:40;99508.41;;;12.52;90.26
22605;BME280;11469;49.024;8.246;2024-03-23T04:06:09;99487.09;;;12.44;90.97
22605;BME280;11469;49.024;8.246;2024-03-23T04:08:34;99505.56;;;12.41;90.60
22605;BME280;11469;49.024;8.246;2024-03-23T04:11:00;99511.97;;;12.38;90.85
22605;BME280;11469;49.024;8.246;2024-03-23T04:13:25;99501.53;;;12.39;90.38
22605;BME280;11469;49.024;8.246;2024-03-23T04:15:54;99513.16;;;12.37;90.36
22605;BME280;11469;49.024;8.246;2024-03-23T04:18:20;99499.50;;;12.32;90.12
22605;BME280;11469;49.024;8.246;2024-03-23T04:20:46;99509.13;;;12.27;90.30
22605;BME280;11469;49.024;8.246;2024-03-23T04:23:12;99521.97;;;12.28;91.05
22605;BME280;11469;49.024;8.246;2024-03-23T04:25:37;99506.69;;;12.22;90.31
22605;BME280;11469;49.024;8.246;2024-03-23T04:28:03;99507.06;;;12.17;90.45
22605;BME280;11469;49.024;8.246;2024-03-23T04:30:28;99517.91;;;12.15;90.50
22605;BME280;11469;49.024;8.246;2024-03-23T04:32:54;99505.47;;;12.20;90.13
22605;BME280;11469;49.024;8.246;2024-03-23T04:35:20;99515.44;;;12.07;91.13
22605;BME280;11469;49.024;8.246;2024-03-23T04:37:50;99527.47;;;12.07;91.65
22605;BME280;11469;49.024;8.246;2024-03-23T04:40:17;99499.34;;;12.00;92.08
22605;BME280;11469;49.024;8.246;2024-03-23T04:42:43;99522.59;;;11.97;91.95
22605;BME280;11469;49.024;8.246;2024-03-23T04:45:08;99520.16;;;11.92;91.23
22605;BME280;11469;49.024;8.246;2024-03-23T04:47:34;99523.72;;;11.85;90.49
22605;BME280;11469;49.024;8.246;2024-03-23T04:50:01;99516.13;;;11.89;89.57
22605;BME280;11469;49.024;8.246;2024-03-23T04:52:27;99522.53;;;11.86;87.52
22605;BME280;11469;49.024;8.246;2024-03-23T04:54:52;99524.91;;;11.84;87.04
22605;BME280;11469;49.024;8.246;2024-03-23T04:57:17;99525.31;;;11.83;83.73
22605;BME280;11469;49.024;8.246;2024-03-23T04:59:43;99516.88;;;11.83;81.85
22605;BME280;11469;49.024;8.246;2024-03-23T05:02:09;99535.34;;;11.80;81.93
22605;BME280;11469;49.024;8.246;2024-03-23T05:04:35;99534.84;;;11.71;80.57
22605;BME280;11469;49.024;8.246;2024-03-23T05:07:02;99550.44;;;11.65;80.98
22605;BME280;11469;49.024;8.246;2024-03-23T05:09:27;99570.81;;;11.55;82.12
22605;BME280;11469;49.024;8.246;2024-03-23T05:11:55;99567.50;;;11.46;83.37
22605;BME280;11469;49.024;8.246;2024-03-23T05:14:21;99548.59;;;11.36;84.59
22605;BME280;11469;49.024;8.246;2024-03-23T05:16:49;99562.63;;;11.39;85.00
22605;BME280;11469;49.024;8.246;2024-03-23T05:19:14;99565.03;;;11.34;85.74
22605;BME280;11469;49.024;8.246;2024-03-23T05:21:40;99576.91;;;11.20;86.80
22605;BME280;11469;49.024;8.246;2024-03-23T05:24:06;99587.28;;;11.16;86.74
22605;BME280;11469;49.024;8.246;2024-03-23T05:26:31;99586.06;;;11.13;87.01
22605;BME280;11469;49.024;8.246;2024-03-23T05:28:59;99583.97;;;11.07;88.39
22605;BME280;11469;49.024;8.246;2024-03-23T05:31:25;99591.97;;;11.05;89.26
22605;BME280;11469;49.024;8.246;2024-03-23T05:33:51;99598.69;;;10.96;89.38
22605;BME280;11469;49.024;8.246;2024-03-23T05:36:17;99602.25;;;10.93;90.11
22605;BME280;11469;49.024;8.246;2024-03-23T05:38:42;99616.22;;;10.86;90.10
22605;BME280;11469;49.024;8.246;2024-03-23T05:41:08;99633.75;;;10.80;89.44
22605;BME280;11469;49.024;8.246;2024-03-23T05:43:33;99638.59;;;10.83;89.62
22605;BME280;11469;49.024;8.246;2024-03-23T05:46:00;99658.94;;;10.76;90.10
22605;BME280;11469;49.024;8.246;2024-03-23T05:48:26;99656.78;;;10.66;89.02
22605;BME280;11469;49.024;8.246;2024-03-23T05:50:52;99666.34;;;10.61;90.67
22605;BME280;11469;49.024;8.246;2024-03-23T05:53:18;99675.94;;;10.60;90.05
22605;BME280;11469;49.024;8.246;2024-03-23T05:55:45;99676.25;;;10.55;90.20
22605;BME280;11469;49.024;8.246;2024-03-23T05:58:12;99680.56;;;10.49;90.65
22605;BME280;11469;49.024;8.246;2024-03-23T06:00:38;99676.09;;;10.45;90.71
22605;BME280;11469;49.024;8.246;2024-03-23T06:03:03;99676.44;;;10.40;91.46
22605;BME280;11469;49.024;8.246;2024-03-23T06:05:29;99687.69;;;10.43;90.52
22605;BME280;11469;49.024;8.246;2024-03-23T06:07:54;99686.06;;;10.42;90.18
22605;BME280;11469;49.024;8.246;2024-03-23T06:10:20;99700.81;;;10.36;90.06
22605;BME280;11469;49.024;8.246;2024-03-23T06:12:46;99700.56;;;10.21;89.75
22605;BME280;11469;49.024;8.246;2024-03-23T06:15:11;99706.03;;;10.14;89.05
22605;BME280;11469;49.024;8.246;2024-03-23T06:17:37;99727.94;;;10.09;88.98
22605;BME280;11469;49.024;8.246;2024-03-23T06:20:03;99733.91;;;10.07;89.15
22605;BME280;11469;49.024;8.246;2024-03-23T06:22:29;99742.25;;;10.04;90.03
22605;BME280;11469;49.024;8.246;2024-03-23T06:24:54;99740.25;;;10.04;90.28
22605;BME280;11469;49.024;8.246;2024-03-23T06:27:19;99753.75;;;9.98;89.92
22605;BME280;11469;49.024;8.246;2024-03-23T06:29:45;99762.72;;;10.08;89.56
22605;BME280;11469;49.024;8.246;2024-03-23T06:32:10;99758.97;;;10.00;89.52
22605;BME280;11469;49.024;8.246;2024-03-23T06:34:35;99768.25;;;10.04;90.29
22605;BME280;11469;49.024;8.246;2024-03-23T06:37:01;99783.28;;;9.96;89.87
22605;BME280;11469;49.024;8.246;2024-03-23T06:39:27;99783.50;;;10.07;89.72
22605;BME280;11469;49.024;8.246;2024-03-23T06:41:54;99790.56;;;10.01;89.80
22605;BME280;11469;49.024;8.246;2024-03-23T06:44:20;99796.59;;;10.03;90.12
22605;BME280;11469;49.024;8.246;2024-03-23T06:46:45;99810.69;;;10.06;89.67
22605;BME280;11469;49.024;8.246;2024-03-23T06:49:11;99812.53;;;9.98;87.36
22605;BME280;11469;49.024;8.246;2024-03-23T06:51:38;99817.38;;;9.79;88.43
22605;BME280;11469;49.024;8.246;2024-03-23T06:54:04;99823.19;;;9.70;88.71
22605;BME280;11469;49.024;8.246;2024-03-23T06:56:30;99831.91;;;9.65;88.07
22605;BME280;11469;49.024;8.246;2024-03-23T06:58:56;99827.84;;;9.62;88.16
22605;BME280;11469;49.024;8.246;2024-03-23T07:01:21;99837.78;;;9.60;88.14
22605;BME280;11469;49.024;8.246;2024-03-23T07:03:47;99849.25;;;9.55;88.53
22605;BME280;11469;49.024;8.246;2024-03-23T07:06:12;99852.28;;;9.46;88.42
22605;BME280;11469;49.024;8.246;2024-03-23T07:08:38;99853.44;;;9.45;88.45
22605;BME280;11469;49.024;8.246;2024-03-23T07:11:03;99853.97;;;9.51;88.34
22605;BME280;11469;49.024;8.246;2024-03-23T07:13:28;99866.34;;;9.50;89.10
22605;BME280;11469;49.024;8.246;2024-03-23T07:15:54;99867.88;;;9.47;88.01
22605;BME280;11469;49.024;8.246;2024-03-23T07:18:23;99881.13;;;9.50;88.28
22605;BME280;11469;49.024;8.246;2024-03-23T07:20:55;99892.78;;;9.52;88.20
22605;BME280;11469;49.024;8.246;2024-03-23T07:23:22;99902.63;;;9.46;88.72
22605;BME280;11469;49.024;8.246;2024-03-23T07:25:57;99906.31;;;9.50;89.21
22605;BME280;11469;49.024;8.246;2024-03-23T07:28:22;99915.06;;;9.49;88.41
22605;BME280;11469;49.024;8.246;2024-03-23T07:30:48;99906.53;;;9.42;88.69
22605;BME280;11469;49.024;8.246;2024-03-23T07:33:13;99908.38;;;9.53;88.99
22605;BME280;11469;49.024;8.246;2024-03-23T07:35:38;99917.75;;;9.80;88.13
22605;BME280;11469;49.024;8.246;2024-03-23T07:38:04;99927.22;;;9.95;87.48
22605;BME280;11469;49.024;8.246;2024-03-23T07:40:31;99943.38;;;10.02;87.31
22605;BME280;11469;49.024;8.246;2024-03-23T07:42:56;99950.06;;;9.97;86.84
22605;BME280;11469;49.024;8.246;2024-03-23T07:45:21;99961.78;;;10.03;87.40
22605;BME280;11469;49.024;8.246;2024-03-23T07:47:47;99961.06;;;10.06;87.32
22605;BME280;11469;49.024;8.246;2024-03-23T07:50:12;99966.88;;;9.97;85.98
22605;BME280;11469;49.024;8.246;2024-03-23T07:52:38;99968.56;;;10.02;86.56
22605;BME280;11469;49.024;8.246;2024-03-23T07:55:06;99983.75;;;10.01;86.84
22605;BME280;11469;49.024;8.246;2024-03-23T07:57:32;99985.50;;;10.09;85.99
22605;BME280;11469;49.024;8.246;2024-03-23T07:59:57;99995.03;;;10.04;84.55
22605;BME280;11469;49.024;8.246;2024-03-23T08:02:23;99996.03;;;9.96;85.05
22605;BME280;11469;49.024;8.246;2024-03-23T08:04:48;100005.97;;;9.93;82.68
22605;BME280;11469;49.024;8.246;2024-03-23T08:07:13;100008.03;;;9.96;80.88
22605;BME280;11469;49.024;8.246;2024-03-23T08:09:39;100014.59;;;10.20;78.31
22605;BME280;11469;49.024;8.246;2024-03-23T08:12:04;100003.69;;;10.34;78.08
22605;BME280;11469;49.024;8.246;2024-03-23T08:14:30;100018.16;;;10.59;77.01
22605;BME280;11469;49.024;8.246;2024-03-23T08:16:55;100013.59;;;10.51;76.87
22605;BME280;11469;49.024;8.246;2024-03-23T08:19:21;100020.41;;;10.30;72.87
22605;BME280;11469;49.024;8.246;2024-03-23T08:21:46;100030.91;;;10.18;72.51
22605;BME280;11469;49.024;8.246;2024-03-23T08:24:11;100038.41;;;10.29;72.84
22605;BME280;11469;49.024;8.246;2024-03-23T08:26:37;100031.16;;;10.28;71.30
22605;BME280;11469;49.024;8.246;2024-03-23T08:29:03;100036.94;;;10.36;69.87
22605;BME280;11469;49.024;8.246;2024-03-23T08:31:28;100052.22;;;10.42;66.92
22605;BME280;11469;49.024;8.246;2024-03-23T08:33:53;100035.50;;;10.45;67.41
22605;BME280;11469;49.024;8.246;2024-03-23T08:36:19;100039.63;;;10.51;64.78
22605;BME280;11469;49.024;8.246;2024-03-23T08:38:44;100037.19;;;10.50;65.53
22605;BME280;11469;49.024;8.246;2024-03-23T08:41:11;100033.78;;;10.60;66.00
22605;BME280;11469;49.024;8.246;2024-03-23T08:43:38;100041.53;;;10.67;65.95
22605;BME280;11469;49.024;8.246;2024-03-23T08:46:09;100055.00;;;10.80;66.31
22605;BME280;11469;49.024;8.246;2024-03-23T08:48:36;100051.41;;;10.80;65.96
22605;BME280;11469;49.024;8.246;2024-03-23T08:51:06;100055.69;;;10.96;64.90
22605;BME280;11469;49.024;8.246;2024-03-23T08:53:32;100052.16;;;11.22;64.34
22605;BME280;11469;49.024;8.246;2024-03-23T08:55:58;100059.66;;;11.41;61.59
22605;BME280;11469;49.024;8.246;2024-03-23T08:58:25;100063.03;;;11.50;59.21
22605;BME280;11469;49.024;8.246;2024-03-23T09:00:54;100057.53;;;11.57;58.58
22605;BME280;11469;49.024;8.246;2024-03-23T09:03:25;100061.78;;;11.48;59.21
22605;BME280;11469;49.024;8.246;2024-03-23T09:05:52;100075.19;;;11.58;59.41
22605;BME280;11469;49.024;8.246;2024-03-23T09:08:18;100088.41;;;11.57;55.93
22605;BME280;11469;49.024;8.246;2024-03-23T09:10:44;100072.06;;;11.40;56.91
22605;BME280;11469;49.024;8.246;2024-03-23T09:13:09;100087.66;;;11.38;56.58
22605;BME280;11469;49.024;8.246;2024-03-23T09:15:36;100093.84;;;11.47;53.83
22605;BME280;11469;49.024;8.246;2024-03-23T09:18:03;100084.97;;;11.45;55.23
22605;BME280;11469;49.024;8.246;2024-03-23T09:20:28;100091.50;;;11.26;54.97
22605;BME280;11469;49.024;8.246;2024-03-23T09:22:54;100084.59;;;11.01;55.68
22605;BME280;11469;49.024;8.246;2024-03-23T09:25:19;100091.25;;;10.92;56.00
22605;BME280;11469;49.024;8.246;2024-03-23T09:27:48;100083.94;;;10.84;55.97
22605;BME280;11469;49.024;8.246;2024-03-23T09:30:14;100091.38;;;10.57;56.27
22605;BME280;11469;49.024;8.246;2024-03-23T09:32:44;100077.22;;;10.50;56.91
22605;BME280;11469;49.024;8.246;2024-03-23T09:35:10;100085.56;;;10.47;58.04
22605;BME280;11469;49.024;8.246;2024-03-23T09:37:35;100086.81;;;10.49;58.39
22605;BME280;11469;49.024;8.246;2024-03-23T09:40:00;100098.38;;;10.48;60.21
22605;BME280;11469;49.024;8.246;2024-03-23T09:42:26;100106.63;;;10.41;60.97
22605;BME280;11469;49.024;8.246;2024-03-23T09:44:51;100101.84;;;10.22;63.47
22605;BME280;11469;49.024;8.246;2024-03-23T09:47:17;100107.47;;;10.06;63.81
22605;BME280;11469;49.024;8.246;2024-03-23T09:49:43;100109.44;;;10.06;64.49
22605;BME280;11469;49.024;8.246;2024-03-23T09:52:09;100118.34;;;9.92;65.80
22605;BME280;11469;49.024;8.246;2024-03-23T09:54:35;100112.50;;;9.65;68.29
22605;BME280;11469;49.024;8.246;2024-03-23T09:57:01;100108.91;;;9.49;70.56
22605;BME280;11469;49.024;8.246;2024-03-23T09:59:26;100111.88;;;9.56;70.42
22605;BME280;11469;49.024;8.246;2024-03-23T10:01:53;100091.28;;;9.64;66.97
22605;BME280;11469;49.024;8.246;2024-03-23T10:04:38;100078.31;;;9.56;67.46
22605;BME280;11469;49.024;8.246;2024-03-23T10:07:11;100082.81;;;9.61;69.87
22605;BME280;11469;49.024;8.246;2024-03-23T10:09:37;100082.28;;;9.55;70.20
22605;BME280;11469;49.024;8.246;2024-03-23T10:12:11;100100.31;;;9.58;70.28
22605;BME280;11469;49.024;8.246;2024-03-23T10:14:38;100094.72;;;9.74;71.54
22605;BME280;11469;49.024;8.246;2024-03-23T10:17:22;100096.69;;;9.89;70.96
22605;BME280;11469;49.024;8.246;2024-03-23T10:19:51;100095.38;;;10.02;70.59
22605;BME280;11469;49.024;8.246;2024-03-23T10:22:23;100099.66;;;10.15;69.82
22605;BME280;11469;49.024;8.246;2024-03-23T10:24:51;100102.66;;;10.22;68.80
22605;BME280;11469;49.024;8.246;2024-03-23T10:27:18;100108.25;;;10.22;70.40
22605;BME280;11469;49.024;8.246;2024-03-23T10:29:47;100106.38;;;10.11;70.04
22605;BME280;11469;49.024;8.246;2024-03-23T10:32:17;100119.84;;;10.05;69.87
22605;BME280;11469;49.024;8.246;2024-03-23T10:34:43;100115.22;;;10.13;69.41
22605;BME280;11469;49.024;8.246;2024-03-23T10:37:09;100111.06;;;10.07;68.78
22605;BME280;11469;49.024;8.246;2024-03-23T10:39:36;100111.97;;;10.11;70.22
22605;BME280;11469;49.024;8.246;2024-03-23T10:42:04;100107.00;;;10.20;68.96
22605;BME280;11469;49.024;8.246;2024-03-23T10:44:30;100101.28;;;10.32;69.89
22605;BME280;11469;49.024;8.246;2024-03-23T10:47:05;100103.53;;;10.46;67.49
22605;BME280;11469;49.024;8.246;2024-03-23T10:49:32;100084.22;;;10.41;67.47
22605;BME280;11469;49.024;8.246;2024-03-23T10:52:04;100089.84;;;10.60;65.86
22605;BME280;11469;49.024;8.246;2024-03-23T10:54:30;100098.56;;;10.97;66.01
22605;BME280;11469;49.024;8.246;2024-03-23T10:57:09;100090.63;;;11.22;65.38
22605;BME280;11469;49.024;8.246;2024-03-23T10:59:37;100097.78;;;11.42;65.89
22605;BME280;11469;49.024;8.246;2024-03-23T11:02:03;100108.25;;;11.45;65.29
22605;BME280;11469;49.024;8.246;2024-03-23T11:04:30;100102.69;;;11.49;65.31
22605;BME280;11469;49.024;8.246;2024-03-23T11:06:56;100099.25;;;11.59;65.97
22605;BME280;11469;49.024;8.246;2024-03-23T11:09:38;100109.91;;;11.73;66.10
22605;BME280;11469;49.024;8.246;2024-03-23T11:15:03;100082.72;;;12.03;65.56
22605;BME280;11469;49.024;8.246;2024-03-23T11:17:29;100083.19;;;11.79;62.63
22605;BME280;11469;49.024;8.246;2024-03-23T11:19:56;100077.94;;;11.77;65.36
22605;BME280;11469;49.024;8.246;2024-03-23T11:25:03;100073.41;;;11.73;64.61
22605;BME280;11469;49.024;8.246;2024-03-23T11:27:28;100072.56;;;11.95;66.96
22605;BME280;11469;49.024;8.246;2024-03-23T11:29:54;100080.66;;;12.00;65.55
22605;BME280;11469;49.024;8.246;2024-03-23T11:32:19;100067.53;;;11.78;66.00
22605;BME280;11469;49.024;8.246;2024-03-23T11:34:44;100068.03;;;11.87;66.03
22605;BME280;11469;49.024;8.246;2024-03-23T11:37:10;100075.81;;;11.97;66.00
22605;BME280;11469;49.024;8.246;2024-03-23T11:39:35;100069.56;;;11.81;67.54
22605;BME280;11469;49.024;8.246;2024-03-23T11:42:01;100066.06;;;11.64;66.25
22605;BME280;11469;49.024;8.246;2024-03-23T11:44:26;100069.38;;;11.70;63.47
22605;BME280;11469;49.024;8.246;2024-03-23T11:46:52;100063.00;;;11.73;60.61
22605;BME280;11469;49.024;8.246;2024-03-23T11:49:25;100049.88;;;12.07;59.91
22605;BME280;11469;49.024;8.246;2024-03-23T11:51:51;100047.94;;;12.45;58.45
22605;BME280;11469;49.024;8.246;2024-03-23T11:54:23;100047.19;;;12.85;52.82
22605;BME280;11469;49.024;8.246;2024-03-23T11:57:08;100044.50;;;12.95;50.32
22605;BME280;11469;49.024;8.246;2024-03-23T11:59:35;100050.63;;;13.05;49.75
22605;BME280;11469;49.024;8.246;2024-03-23T12:02:11;100051.50;;;12.72;48.65
22605;BME280;11469;49.024;8.246;2024-03-23T12:04:37;100057.22;;;12.82;49.71
22605;BME280;11469;49.024;8.246;2024-03-23T12:07:16;100051.28;;;12.91;49.46
22605;BME280;11469;49.024;8.246;2024-03-23T12:09:46;100057.66;;;12.88;49.59
22605;BME280;11469;49.024;8.246;2024-03-23T12:12:16;100045.34;;;12.29;50.24
22605;BME280;11469;49.024;8.246;2024-03-23T12:15:01;100019.78;;;11.78;52.74
22605;BME280;11469;49.024;8.246;2024-03-23T12:17:27;100029.25;;;11.70;54.03
22605;BME280;11469;49.024;8.246;2024-03-23T12:19:52;100032.50;;;11.72;54.40
22605;BME280;11469;49.024;8.246;2024-03-23T12:22:21;100042.09;;;11.71;53.97
22605;BME280;11469;49.024;8.246;2024-03-23T12:24:47;100035.63;;;11.67;52.98
22605;BME280;11469;49.024;8.246;2024-03-23T12:27:13;100036.50;;;11.71;54.26
22605;BME280;11469;49.024;8.246;2024-03-23T12:29:38;100024.09;;;11.72;51.46
22605;BME280;11469;49.024;8.246;2024-03-23T12:32:04;100027.16;;;11.89;49.91
22605;BME280;11469;49.024;8.246;2024-03-23T12:34:30;100026.94;;;12.02;50.56
22605;BME280;11469;49.024;8.246;2024-03-23T12:36:56;100032.97;;;12.04;48.12
22605;BME280;11469;49.024;8.246;2024-03-23T12:39:21;100024.78;;;11.91;47.83
22605;BME280;11469;49.024;8.246;2024-03-23T12:41:48;100042.72;;;11.83;48.42
22605;BME280;11469;49.024;8.246;2024-03-23T12:44:13;100069.31;;;11.67;50.11
22605;BME280;11469;49.024;8.246;2024-03-23T12:46:40;100098.75;;;10.27;59.24
22605;BME280;11469;49.024;8.246;2024-03-23T12:49:06;100095.53;;;9.58;66.61
22605;BME280;11469;49.024;8.246;2024-03-23T12:51:32;100091.94;;;9.11;71.35
22605;BME280;11469;49.024;8.246;2024-03-23T12:53:57;100090.56;;;8.89;72.95
22605;BME280;11469;49.024;8.246;2024-03-23T12:56:23;100075.50;;;8.78;73.88
22605;BME280;11469;49.024;8.246;2024-03-23T12:58:48;100074.75;;;8.65;74.43
22605;BME280;11469;49.024;8.246;2024-03-23T13:01:17;100072.41;;;8.67;72.51
22605;BME280;11469;49.024;8.246;2024-03-23T13:03:42;100063.50;;;8.77;71.16
22605;BME280;11469;49.024;8.246;2024-03-23T13:06:10;100065.78;;;9.19;70.81
22605;BME280;11469;49.024;8.246;2024-03-23T13:08:35;100071.47;;;9.38;67.67
22605;BME280;11469;49.024;8.246;2024-03-23T13:11:01;100056.38;;;9.58;65.78
22605;BME280;11469;49.024;8.246;2024-03-23T13:13:26;100060.66;;;9.87;64.13
22605;BME280;11469;49.024;8.246;2024-03-23T13:15:51;100077.09;;;9.89;62.58
22605;BME280;11469;49.024;8.246;2024-03-23T13:18:17;100075.91;;;9.90;62.30
22605;BME280;11469;49.024;8.246;2024-03-23T13:20:42;100056.09;;;9.98;60.56
22605;BME280;11469;49.024;8.246;2024-03-23T13:23:08;100063.03;;;10.05;61.61
22605;BME280;11469;49.024;8.246;2024-03-23T13:25:34;100058.16;;;10.02;63.41
22605;BME280;11469;49.024;8.246;2024-03-23T13:27:59;100063.59;;;9.94;61.30
22605;BME280;11469;49.024;8.246;2024-03-23T13:30:27;100069.19;;;9.94;62.49
22605;BME280;11469;49.024;8.246;2024-03-23T13:32:52;100073.41;;;9.85;63.55
22605;BME280;11469;49.024;8.246;2024-03-23T13:35:18;100067.19;;;9.60;65.30
22605;BME280;11469;49.024;8.246;2024-03-23T13:37:43;100044.44;;;9.77;66.74
22605;BME280;11469;49.024;8.246;2024-03-23T13:40:09;100040.19;;;10.03;65.26
22605;BME280;11469;49.024;8.246;2024-03-23T13:42:35;100039.44;;;10.21;65.69
22605;BME280;11469;49.024;8.246;2024-03-23T13:45:00;100036.66;;;10.44;63.72
22605;BME280;11469;49.024;8.246;2024-03-23T13:47:25;100041.75;;;10.77;62.81
22605;BME280;11469;49.024;8.246;2024-03-23T13:49:51;100041.66;;;10.74;60.31
22605;BME280;11469;49.024;8.246;2024-03-23T13:52:16;100075.72;;;10.18;61.88